EETN/TLL METAR and TAF weather

Enter ICAO airport designator
Station Type Date Time Source
EETN METAR 2019/10/21 22:20 UTC NOAA

EETN 212220Z 23004KT 9999 -DZ BKN011 OVC028 06/05 Q1020


Station Type Date Time Source
EETN Decoded METAR 2019/10/21 22:20 UTC NOAA

Tallinn, Estonia (EETN) 59-24N 024-49E 34M
Oct 21, 2019 - 06:20 PM EDT / 2019.10.21 2220 UTC
Wind: from the SW (230 degrees) at 5 MPH (4 KT):0
Visibility: greater than 7 mile(s):0
Sky conditions: overcast
Weather: light drizzle
Temperature: 42 F (6 C)
Dew Point: 41 F (5 C)
Relative Humidity: 93%
Pressure (altimeter): 30.12 in. Hg (1020 hPa)
ob: EETN 212220Z 23004KT 9999 -DZ BKN011 OVC028 06/05 Q1020
cycle: 22

Station Type Date Time Source
EETN TAF 2019/10/21 18:18 UTC NOAA

TAF TAF EETN 211715Z 2118/2218 26010KT 9999 BKN013 OVC020 PROB40
TEMPO 2118/2122 3000 BR BKN006
BECMG 2119/2120 20007KT
TEMPO 2206/2214 3000 SHRA BKN004 SCT013CB
BECMG 2212/2214 26018G30KT

Example: see airport list